Time;durP1;ratioP1;P1;durP2;ratioP2;P2;SDS_P1;SDS_P2;PMS_P1;PMS_P2;Temp;Humidity;BMP_temperature;BMP_pressure;BME280_temperature;BME280_humidity;BME280_pressure;Samples;Min_cycle;Max_cycle;Signal;HPM_P1;HPM_P2
2023/12/31 00:01:35;;;;;;;9.60;4.65;;;;;;;3.80;100.00;97493.19;5078872;28;20047;-62
2023/12/31 00:04:03;;;;;;;7.40;3.50;;;;;;;3.64;100.00;97491.34;5052927;28;20048;-63
2023/12/31 00:06:29;;;;;;;9.40;4.03;;;;;;;3.32;100.00;97466.97;5080438;28;20078;-61
2023/12/31 00:08:54;;;;;;;7.88;3.95;;;;;;;3.43;100.00;97495.63;5070511;28;20575;-61
2023/12/31 00:11:21;;;;;;;8.50;3.88;;;;;;;3.60;100.00;97498.34;5085113;28;20101;-62
2023/12/31 00:13:47;;;;;;;8.25;3.80;;;;;;;3.21;100.00;97464.84;5081238;28;20143;-63
2023/12/31 00:16:14;;;;;;;12.05;4.47;;;;;;;3.34;100.00;97496.00;5082728;28;20134;-62
2023/12/31 00:18:41;;;;;;;7.22;3.03;;;;;;;3.27;100.00;97502.28;5066263;28;20040;-63
2023/12/31 00:21:07;;;;;;;9.15;4.78;;;;;;;3.18;100.00;97498.34;5064883;28;20150;-63
2023/12/31 00:23:33;;;;;;;6.82;3.80;;;;;;;3.27;100.00;97497.13;5081696;28;20098;-62
2023/12/31 00:25:59;;;;;;;7.88;4.07;;;;;;;3.39;100.00;97501.78;5082718;28;20040;-61
2023/12/31 00:28:25;;;;;;;8.27;4.40;;;;;;;3.57;100.00;97500.19;5083809;28;20043;-62
2023/12/31 00:30:51;;;;;;;8.55;4.30;;;;;;;3.62;100.00;97499.09;5064518;28;20039;-63
2023/12/31 00:33:17;;;;;;;10.23;4.10;;;;;;;3.64;100.00;97494.75;5065350;28;20585;-57
2023/12/31 00:35:43;;;;;;;7.25;3.40;;;;;;;3.75;100.00;97497.69;5082215;28;20076;-63
2023/12/31 00:38:09;;;;;;;7.20;3.70;;;;;;;3.77;100.00;97501.03;5079117;28;20049;-64
2023/12/31 00:40:35;;;;;;;7.78;4.25;;;;;;;3.75;100.00;97492.56;5082524;28;20036;-64
2023/12/31 00:43:01;;;;;;;6.57;3.63;;;;;;;3.75;100.00;97499.44;5083338;28;20040;-65
2023/12/31 00:45:27;;;;;;;7.32;3.97;;;;;;;3.77;100.00;97498.47;5081966;28;20554;-64
2023/12/31 00:47:53;;;;;;;6.60;3.20;;;;;;;3.71;100.00;97503.88;5085286;28;20143;-64
2023/12/31 00:50:19;;;;;;;7.97;3.90;;;;;;;3.50;100.00;97452.56;5067921;28;20047;-64
2023/12/31 00:52:45;;;;;;;7.82;3.75;;;;;;;3.56;100.00;97453.13;5071440;28;20028;-63
2023/12/31 00:55:11;;;;;;;7.65;3.42;;;;;;;3.66;100.00;97485.25;5071759;28;20042;-62
2023/12/31 00:57:37;;;;;;;7.10;3.58;;;;;;;3.58;100.00;97477.00;5085515;28;20044;-62
2023/12/31 01:00:05;;;;;;;6.97;3.95;;;;;;;3.66;100.00;97489.56;5082692;28;20039;-64
2023/12/31 01:02:31;;;;;;;7.97;3.88;;;;;;;3.76;100.00;97465.97;5074387;28;20039;-64
2023/12/31 01:04:57;;;;;;;7.07;3.95;;;;;;;3.82;100.00;97473.41;5085206;28;20058;-63
2023/12/31 01:07:23;;;;;;;6.72;3.40;;;;;;;3.79;100.00;97482.97;5081727;28;20033;-63
2023/12/31 01:09:49;;;;;;;6.78;3.35;;;;;;;3.66;100.00;97481.84;5078606;28;20044;-60
2023/12/31 01:12:15;;;;;;;6.28;3.47;;;;;;;3.65;100.00;97480.16;5099445;28;20633;-63
2023/12/31 01:14:41;;;;;;;8.23;4.18;;;;;;;3.35;100.00;97421.47;5095626;28;20079;-64
2023/12/31 01:17:08;;;;;;;8.73;4.40;;;;;;;3.81;100.00;97481.19;5085657;28;20041;-62
2023/12/31 01:19:35;;;;;;;8.00;3.53;;;;;;;3.60;100.00;97449.53;5093488;28;20058;-62
2023/12/31 01:22:01;;;;;;;8.55;4.00;;;;;;;3.77;100.00;97477.91;5070663;28;20530;-64
2023/12/31 01:24:28;;;;;;;7.55;3.40;;;;;;;3.89;100.00;97486.00;5088133;28;20040;-63
2023/12/31 01:26:53;;;;;;;7.60;3.90;;;;;;;3.97;100.00;97479.63;5085327;28;20047;-63
2023/12/31 01:29:19;;;;;;;7.32;3.72;;;;;;;3.93;100.00;97482.38;5082713;28;20047;-64
2023/12/31 01:31:46;;;;;;;9.40;4.65;;;;;;;3.90;100.00;97478.22;5083537;28;20036;-63
2023/12/31 01:34:12;;;;;;;10.30;4.07;;;;;;;3.75;100.00;97474.56;5085047;28;20050;-63
2023/12/31 01:36:39;;;;;;;9.63;4.53;;;;;;;3.70;100.00;97473.94;5081605;28;20036;-63
2023/12/31 01:39:07;;;;;;;8.00;4.18;;;;;;;3.57;100.00;97453.94;5085121;28;20044;-63
2023/12/31 01:41:33;;;;;;;8.48;4.22;;;;;;;3.71;100.00;97464.50;5085128;28;21319;-63
2023/12/31 01:44:04;;;;;;;8.27;3.95;;;;;;;3.78;100.00;97466.72;5087641;28;20046;-63
2023/12/31 01:46:32;;;;;;;10.18;4.68;;;;;;;3.73;100.00;97460.94;5083876;28;20124;-67
2023/12/31 01:48:59;;;;;;;10.77;4.88;;;;;;;3.62;100.00;97470.00;5085048;28;20043;-63
2023/12/31 01:51:26;;;;;;;10.70;4.55;;;;;;;3.72;100.00;97464.41;5052295;28;20032;-64
2023/12/31 01:53:53;;;;;;;9.40;3.67;;;;;;;3.78;100.00;97461.59;5085619;28;20132;-64
2023/12/31 01:56:19;;;;;;;9.70;4.78;;;;;;;3.48;100.00;97436.38;5085131;28;20043;-64
2023/12/31 01:58:47;;;;;;;11.48;5.20;;;;;;;3.62;100.00;97442.59;5052980;28;20036;-63
2023/12/31 02:01:14;;;;;;;7.63;3.88;;;;;;;3.85;100.00;97469.88;5065809;28;20075;-64
2023/12/31 02:03:40;;;;;;;9.10;3.72;;;;;;;3.71;100.00;97464.50;5083883;28;20071;-63
2023/12/31 02:06:06;;;;;;;9.32;4.15;;;;;;;3.70;100.00;97468.81;5082325;28;20124;-63
2023/12/31 02:08:32;;;;;;;6.97;2.67;;;;;;;3.59;100.00;97467.56;5085404;28;20503;-64
2023/12/31 02:10:58;;;;;;;9.55;3.40;;;;;;;3.57;100.00;97475.34;5067519;28;20517;-63
2023/12/31 02:13:24;;;;;;;11.63;4.30;;;;;;;3.55;100.00;97472.03;5083904;28;20044;-63
2023/12/31 02:15:53;;;;;;;8.65;3.90;;;;;;;3.73;100.00;97465.25;5082052;28;20040;-64
2023/12/31 02:18:19;;;;;;;8.88;3.53;;;;;;;3.80;100.00;97466.66;5087247;28;20633;-63
2023/12/31 02:20:51;;;;;;;7.70;3.60;;;;;;;3.79;100.00;97475.28;5083562;28;20464;-63
2023/12/31 02:23:17;;;;;;;7.78;3.70;;;;;;;3.77;100.00;97475.31;5064792;28;20406;-64
2023/12/31 02:25:47;;;;;;;8.52;4.03;;;;;;;3.60;100.00;97470.09;5084153;28;20041;-62
2023/12/31 02:28:14;;;;;;;13.27;4.55;;;;;;;3.13;100.00;97414.72;5054120;28;20466;-63
2023/12/31 02:30:40;;;;;;;10.50;5.00;;;;;;;3.50;100.00;97479.09;5085102;28;20051;-63
2023/12/31 02:33:06;;;;;;;9.32;4.65;;;;;;;3.40;100.00;97476.03;5065858;28;20123;-63
2023/12/31 02:35:32;;;;;;;9.43;3.58;;;;;;;3.37;100.00;97477.91;5082637;28;20127;-63
2023/12/31 02:37:58;;;;;;;11.18;4.88;;;;;;;3.29;100.00;97480.78;5081563;28;20504;-64
2023/12/31 02:40:24;;;;;;;11.27;4.72;;;;;;;2.92;100.00;97426.69;5082342;28;20055;-66
2023/12/31 02:42:51;;;;;;;14.00;5.22;;;;;;;3.14;100.00;97475.44;5069637;28;20036;-64
2023/12/31 02:45:17;;;;;;;11.48;5.18;;;;;;;2.95;100.00;97454.78;5080522;28;20048;-64
2023/12/31 02:47:43;;;;;;;14.43;4.38;;;;;;;2.99;100.00;97461.47;5082520;28;20063;-63
2023/12/31 02:50:09;;;;;;;10.93;4.70;;;;;;;2.95;100.00;97462.50;5084084;28;20068;-63
2023/12/31 02:52:36;;;;;;;16.35;5.05;;;;;;;3.01;100.00;97476.81;5081789;28;20097;-63
2023/12/31 02:55:02;;;;;;;15.05;4.13;;;;;;;2.94;100.00;97476.22;5083737;28;20094;-63
2023/12/31 02:57:31;;;;;;;11.52;4.60;;;;;;;2.92;100.00;97475.44;5082111;28;20036;-63
2023/12/31 02:59:57;;;;;;;13.25;5.40;;;;;;;2.97;100.00;97468.41;5070229;28;20032;-62
2023/12/31 03:02:23;;;;;;;12.52;5.30;;;;;;;2.78;100.00;97432.34;5083563;28;20047;-62
2023/12/31 03:04:49;;;;;;;13.35;5.00;;;;;;;2.81;100.00;97439.94;5082828;28;20419;-61
2023/12/31 03:07:15;;;;;;;9.77;4.18;;;;;;;3.05;100.00;97465.53;5079716;28;20050;-62
2023/12/31 03:09:41;;;;;;;8.60;4.63;;;;;;;3.02;100.00;97468.22;5085763;28;20572;-63
2023/12/31 03:12:07;;;;;;;8.20;3.80;;;;;;;2.61;100.00;97408.28;5084852;28;20044;-63
2023/12/31 03:14:33;;;;;;;10.70;4.90;;;;;;;3.03;100.00;97473.31;5083164;28;20085;-63
2023/12/31 03:16:59;;;;;;;8.48;4.13;;;;;;;3.08;100.00;97470.56;5082444;28;20044;-63
2023/12/31 03:19:24;;;;;;;11.95;4.40;;;;;;;3.08;100.00;97470.56;5082558;28;20458;-63
2023/12/31 03:21:50;;;;;;;7.78;3.30;;;;;;;3.05;100.00;97471.50;5077500;28;20044;-59
2023/12/31 03:24:20;;;;;;;7.70;3.75;;;;;;;3.03;100.00;97470.72;5071388;28;20503;-62
2023/12/31 03:26:46;;;;;;;10.38;4.22;;;;;;;3.01;100.00;97458.84;5071689;28;20063;-64
2023/12/31 03:29:13;;;;;;;7.20;3.45;;;;;;;3.15;100.00;97469.38;5062505;28;20051;-63
2023/12/31 03:31:39;;;;;;;9.15;3.53;;;;;;;3.11;100.00;97465.28;5069887;28;20036;-64
2023/12/31 03:34:07;;;;;;;8.63;3.50;;;;;;;3.08;100.00;97458.56;5070828;28;20573;-63
2023/12/31 03:36:34;;;;;;;4.63;2.53;;;;;;;3.04;100.00;97462.13;5079709;28;20047;-60
2023/12/31 03:39:00;;;;;;;8.00;3.95;;;;;;;2.83;100.00;97435.56;5071027;28;20056;-63
2023/12/31 03:41:26;;;;;;;6.22;2.67;;;;;;;3.14;100.00;97460.03;5070750;28;20044;-63
2023/12/31 03:43:52;;;;;;;8.75;3.95;;;;;;;2.72;100.00;97393.31;5052886;28;20051;-63
2023/12/31 03:46:18;;;;;;;9.45;4.03;;;;;;;3.11;100.00;97460.97;5071830;28;20083;-63
2023/12/31 03:48:44;;;;;;;5.18;2.90;;;;;;;2.90;100.00;97428.47;5074691;28;20041;-62
2023/12/31 03:51:10;;;;;;;5.93;3.25;;;;;;;2.91;100.00;97446.38;5072693;28;20449;-63
2023/12/31 03:53:35;;;;;;;7.15;3.00;;;;;;;3.02;100.00;97463.09;5088070;28;20512;-62
2023/12/31 03:56:02;;;;;;;8.50;4.03;;;;;;;2.95;100.00;97455.63;5072561;28;20048;-63
2023/12/31 03:58:28;;;;;;;7.28;2.97;;;;;;;2.49;100.00;97371.13;5076490;28;20424;-62
2023/12/31 04:00:54;;;;;;;6.25;2.85;;;;;;;2.89;100.00;97445.59;5064144;28;20046;-63
2023/12/31 04:03:20;;;;;;;5.85;3.05;;;;;;;2.98;100.00;97452.13;5071477;28;20044;-63
2023/12/31 04:05:46;;;;;;;8.60;3.10;;;;;;;2.84;100.00;97413.31;5072471;28;20139;-62
2023/12/31 04:08:11;;;;;;;6.38;3.00;;;;;;;3.19;100.00;97450.41;5088441;28;20427;-63
2023/12/31 04:10:37;;;;;;;7.32;3.63;;;;;;;3.13;100.00;97456.63;5072511;28;20036;-63
2023/12/31 04:13:03;;;;;;;5.68;2.60;;;;;;;3.13;100.00;97459.19;5071836;28;20778;-63
2023/12/31 04:15:29;;;;;;;4.18;2.15;;;;;;;3.10;100.00;97450.78;5071721;28;20046;-64
2023/12/31 04:17:56;;;;;;;6.95;3.50;;;;;;;3.11;100.00;97453.28;5070906;28;20036;-63
2023/12/31 04:20:21;;;;;;;5.25;2.85;;;;;;;3.13;100.00;97453.22;5089023;28;20074;-62
2023/12/31 04:22:47;;;;;;;7.50;4.10;;;;;;;3.14;100.00;97450.56;5088088;28;20866;-63
2023/12/31 04:25:13;;;;;;;7.40;3.88;;;;;;;3.26;100.00;97451.81;5064277;28;20143;-63
2023/12/31 04:27:40;;;;;;;5.20;3.08;;;;;;;3.34;100.00;97460.91;5089244;28;20086;-65
2023/12/31 04:30:06;;;;;;;6.07;2.78;;;;;;;3.33;100.00;97455.81;5080396;28;20043;-63
2023/12/31 04:32:33;;;;;;;7.32;3.78;;;;;;;3.32;100.00;97454.13;5079298;28;20050;-62
2023/12/31 04:34:59;;;;;;;7.22;3.70;;;;;;;3.16;100.00;97412.84;5075525;28;20045;-63
2023/12/31 04:37:26;;;;;;;4.20;2.20;;;;;;;3.53;100.00;97455.81;5075885;28;20178;-63
2023/12/31 04:39:51;;;;;;;5.38;3.20;;;;;;;3.46;100.00;97451.81;5075344;28;20562;-63
2023/12/31 04:42:17;;;;;;;6.30;2.65;;;;;;;3.37;100.00;97455.63;5076025;28;20039;-63
2023/12/31 04:44:44;;;;;;;6.10;3.30;;;;;;;3.27;100.00;97443.22;5062687;28;20050;-63
2023/12/31 04:47:10;;;;;;;5.95;2.88;;;;;;;3.33;100.00;97460.97;5083932;28;20041;-62
2023/12/31 04:49:35;;;;;;;10.27;3.10;;;;;;;3.43;100.00;97451.97;5081499;28;20511;-63
2023/12/31 04:52:01;;;;;;;3.67;2.22;;;;;;;3.53;100.00;97453.25;5074443;28;20060;-63
2023/12/31 04:54:27;;;;;;;4.28;2.03;;;;;;;3.50;100.00;97455.97;5089966;28;20072;-62
2023/12/31 04:56:53;;;;;;;3.90;2.05;;;;;;;3.46;100.00;97453.56;5075774;28;20831;-61
2023/12/31 04:59:19;;;;;;;4.05;2.17;;;;;;;3.31;100.00;97435.34;5075742;28;20036;-63
2023/12/31 05:01:49;;;;;;;5.45;2.15;;;;;;;3.52;100.00;97454.16;5059198;28;20039;-59
2023/12/31 05:04:15;;;;;;;2.25;1.35;;;;;;;3.51;100.00;97462.75;5075414;28;20044;-63
2023/12/31 05:06:41;;;;;;;3.50;2.08;;;;;;;3.50;100.00;97455.13;5076123;28;20526;-62
2023/12/31 05:09:11;;;;;;;4.00;2.10;;;;;;;3.31;100.00;97430.19;5080559;28;20040;-63
2023/12/31 05:11:37;;;;;;;3.03;1.70;;;;;;;3.28;100.00;97424.38;5063745;28;20093;-64
2023/12/31 05:14:04;;;;;;;3.08;1.83;;;;;;;3.52;100.00;97472.13;5074158;28;20062;-64
2023/12/31 05:16:31;;;;;;;2.83;1.60;;;;;;;3.60;100.00;97480.38;5084538;28;20044;-64
2023/12/31 05:18:59;;;;;;;3.67;1.52;;;;;;;3.44;100.00;97450.25;5080024;28;20040;-63
2023/12/31 05:21:25;;;;;;;2.08;1.30;;;;;;;3.55;100.00;97477.16;5077558;28;20047;-62
2023/12/31 05:23:51;;;;;;;2.53;1.55;;;;;;;3.55;100.00;97474.59;5069590;28;20048;-63
2023/12/31 05:26:17;;;;;;;4.50;1.63;;;;;;;3.36;100.00;97451.38;5087725;28;20044;-63
2023/12/31 05:28:43;;;;;;;2.38;1.33;;;;;;;3.56;100.00;97478.81;5062287;28;20050;-63
2023/12/31 05:31:11;;;;;;;1.17;0.90;;;;;;;3.63;100.00;97487.09;5071819;28;20435;-63
2023/12/31 05:33:37;;;;;;;2.38;1.27;;;;;;;3.61;100.00;97483.78;5069699;28;20066;-63
2023/12/31 05:36:03;;;;;;;1.52;1.08;;;;;;;3.64;100.00;97484.47;5075710;28;20580;-65
2023/12/31 05:38:30;;;;;;;1.70;1.27;;;;;;;3.75;100.00;97490.00;5095811;28;20097;-63
2023/12/31 05:40:56;;;;;;;1.40;0.93;;;;;;;3.82;100.00;97478.53;5074653;28;20037;-63
2023/12/31 05:43:22;;;;;;;1.88;1.40;;;;;;;3.82;100.00;97488.00;5077430;28;20054;-63
2023/12/31 05:45:48;;;;;;;1.85;1.08;;;;;;;3.86;100.00;97486.97;5077584;28;20116;-64
2023/12/31 05:48:14;;;;;;;2.17;1.48;;;;;;;3.87;100.00;97493.78;5074815;28;20064;-63
2023/12/31 05:50:40;;;;;;;1.52;1.00;;;;;;;3.74;100.00;97474.63;5072869;28;20046;-62
2023/12/31 05:53:06;;;;;;;1.48;1.20;;;;;;;3.76;100.00;97495.97;5085137;28;20059;-63
2023/12/31 05:55:32;;;;;;;1.70;1.13;;;;;;;3.86;100.00;97491.28;5075073;28;20043;-63
2023/12/31 05:57:58;;;;;;;2.20;1.25;;;;;;;3.96;100.00;97495.97;5085430;28;20074;-61
2023/12/31 06:00:24;;;;;;;2.63;1.17;;;;;;;4.05;100.00;97495.56;5062314;28;20117;-62
2023/12/31 06:02:50;;;;;;;2.92;1.30;;;;;;;4.05;100.00;97497.28;5074563;28;20047;-61
2023/12/31 06:05:17;;;;;;;1.77;1.05;;;;;;;4.01;100.00;97494.03;5078905;28;20032;-61
2023/12/31 06:07:44;;;;;;;2.88;1.15;;;;;;;3.86;100.00;97471.56;5077794;28;20036;-63
2023/12/31 06:10:10;;;;;;;2.67;1.20;;;;;;;4.15;100.00;97506.25;5074740;28;20518;-63
2023/12/31 06:12:36;;;;;;;1.67;1.30;;;;;;;3.97;100.00;97463.38;5074604;28;20037;-62
2023/12/31 06:15:07;;;;;;;3.13;1.48;;;;;;;4.14;100.00;97499.44;5075960;28;20117;-64
2023/12/31 06:17:33;;;;;;;2.00;1.10;;;;;;;3.77;100.00;97452.19;5085095;28;20036;-61
2023/12/31 06:20:00;;;;;;;2.40;1.30;;;;;;;4.08;100.00;97492.84;5075141;28;20580;-62
2023/12/31 06:22:29;;;;;;;3.22;1.38;;;;;;;4.13;100.00;97513.22;5070665;28;20044;-62
2023/12/31 06:24:55;;;;;;;2.53;1.13;;;;;;;4.21;100.00;97514.56;5090246;28;20048;-62
2023/12/31 06:27:22;;;;;;;2.20;1.00;;;;;;;4.21;100.00;97506.84;5072349;28;20037;-63
2023/12/31 06:29:50;;;;;;;5.40;1.42;;;;;;;4.11;100.00;97508.16;5078478;28;20044;-62
2023/12/31 06:32:16;;;;;;;2.97;1.48;;;;;;;4.09;100.00;97503.97;5079993;28;20116;-62
2023/12/31 06:34:42;;;;;;;3.42;0.88;;;;;;;4.12;100.00;97503.84;5076816;28;20044;-63
2023/12/31 06:37:08;;;;;;;1.88;1.20;;;;;;;4.15;100.00;97507.09;5082003;28;20036;-62
2023/12/31 06:39:34;;;;;;;1.48;0.90;;;;;;;4.12;100.00;97504.69;5084799;28;20462;-60
2023/12/31 06:42:00;;;;;;;1.42;0.95;;;;;;;4.01;100.00;97509.44;5085140;28;20122;-62
2023/12/31 06:44:28;;;;;;;1.27;0.93;;;;;;;3.89;100.00;97516.81;5080559;28;20564;-63
2023/12/31 06:46:54;;;;;;;2.33;1.23;;;;;;;3.88;100.00;97517.72;5069635;28;20131;-64
2023/12/31 06:49:20;;;;;;;1.73;1.20;;;;;;;3.87;100.00;97486.06;5085047;28;20524;-63
2023/12/31 06:51:47;;;;;;;5.65;1.67;;;;;;;4.14;100.00;97522.59;5079784;28;20122;-63
2023/12/31 06:54:14;;;;;;;1.10;0.70;;;;;;;4.05;100.00;97516.13;5086724;28;20036;-64
2023/12/31 06:56:40;;;;;;;2.83;1.02;;;;;;;4.22;100.00;97525.69;5081908;28;20047;-62
2023/12/31 06:59:06;;;;;;;1.95;0.90;;;;;;;4.30;100.00;97526.16;5085551;28;20061;-61
2023/12/31 07:01:32;;;;;;;1.30;0.90;;;;;;;4.29;100.00;97529.66;5082472;28;20039;-60
2023/12/31 07:03:58;;;;;;;1.92;0.82;;;;;;;3.75;100.00;97451.44;5064440;28;20044;-62
2023/12/31 07:06:24;;;;;;;1.98;1.13;;;;;;;4.01;100.00;97529.16;5074234;28;20058;-62
2023/12/31 07:08:50;;;;;;;2.15;0.93;;;;;;;4.12;100.00;97522.69;5077891;28;20032;-61
2023/12/31 07:11:17;;;;;;;1.35;0.70;;;;;;;4.20;100.00;97528.31;5079550;28;20066;-61
2023/12/31 07:13:43;;;;;;;1.30;0.70;;;;;;;4.28;100.00;97540.00;5063978;28;20042;-63
2023/12/31 07:16:10;;;;;;;0.90;0.70;;;;;;;4.20;100.00;97537.75;5068206;28;20139;-62
2023/12/31 07:18:38;;;;;;;0.70;0.60;;;;;;;4.30;100.00;97546.75;5074671;28;20159;-63
2023/12/31 07:21:05;;;;;;;2.20;0.90;;;;;;;4.25;100.00;97549.50;5073111;28;20052;-62
2023/12/31 07:23:31;;;;;;;1.73;0.85;;;;;;;4.36;100.00;97548.22;5068100;28;20042;-62
2023/12/31 07:25:58;;;;;;;4.75;1.02;;;;;;;4.54;100.00;97555.13;5075927;28;20044;-63
2023/12/31 07:28:25;;;;;;;1.48;0.75;;;;;;;4.66;100.00;97552.84;5073278;28;20040;-62
2023/12/31 07:30:51;;;;;;;1.20;0.82;;;;;;;4.72;100.00;97550.88;5072932;28;20044;-61
2023/12/31 07:33:17;;;;;;;2.15;0.73;;;;;;;4.63;100.00;97563.28;5061418;28;20039;-62
2023/12/31 07:35:43;;;;;;;1.00;0.65;;;;;;;4.67;100.00;97556.25;5069161;28;20041;-62
2023/12/31 07:38:10;;;;;;;0.88;0.70;;;;;;;4.70;100.00;97558.69;5078531;28;20040;-59
2023/12/31 07:40:36;;;;;;;1.00;0.63;;;;;;;4.77;100.00;97559.22;5078823;28;20040;-58
2023/12/31 07:43:02;;;;;;;2.63;1.20;;;;;;;4.66;100.00;97559.72;5081907;28;20529;-62
2023/12/31 07:45:28;;;;;;;1.55;0.60;;;;;;;4.63;100.00;97562.44;5069667;28;20044;-61
2023/12/31 07:47:54;;;;;;;3.42;0.75;;;;;;;4.67;100.00;97564.81;5081479;28;20044;-56
2023/12/31 07:50:21;;;;;;;0.80;0.55;;;;;;;4.49;100.00;97526.22;5071406;28;20135;-60
2023/12/31 07:52:47;;;;;;;0.40;0.40;;;;;;;4.61;100.00;97572.78;5069304;28;20505;-63
2023/12/31 07:55:13;;;;;;;0.88;0.40;;;;;;;4.57;100.00;97575.56;5072149;28;20048;-62
2023/12/31 07:57:39;;;;;;;0.95;0.60;;;;;;;4.54;100.00;97578.28;5071988;28;20036;-61
2023/12/31 08:00:07;;;;;;;0.60;0.30;;;;;;;4.47;100.00;97582.03;5074529;28;20470;-66
2023/12/31 08:02:41;;;;;;;0.75;0.52;;;;;;;4.46;100.00;97576.03;5069294;28;20042;-64
2023/12/31 08:05:07;;;;;;;0.30;0.30;;;;;;;4.39;100.00;97579.81;5071813;28;20040;-62
2023/12/31 08:07:34;;;;;;;1.17;0.38;;;;;;;4.41;100.00;97575.41;5075529;28;20105;-66
2023/12/31 08:10:00;;;;;;;6.28;2.00;;;;;;;4.61;100.00;97587.38;5072887;28;20135;-64
2023/12/31 08:12:25;;;;;;;1.60;0.57;;;;;;;4.70;100.00;97587.00;5078252;28;21143;-68
2023/12/31 08:14:51;;;;;;;0.60;0.57;;;;;;;4.61;100.00;97583.09;5072713;28;20531;-69
2023/12/31 08:17:18;;;;;;;0.70;0.40;;;;;;;4.73;100.00;97583.44;5074006;28;20106;-68
2023/12/31 08:19:44;;;;;;;3.20;0.50;;;;;;;4.78;100.00;97584.91;5069361;28;20040;-61
2023/12/31 08:22:10;;;;;;;2.20;1.00;;;;;;;4.93;100.00;97597.09;5072000;28;20078;-62
2023/12/31 08:24:36;;;;;;;0.40;0.30;;;;;;;4.99;100.00;97598.56;5072550;28;20129;-61
2023/12/31 08:27:03;;;;;;;2.50;0.77;;;;;;;5.09;100.00;97585.19;5071163;28;20033;-62
2023/12/31 08:29:28;;;;;;;0.75;0.40;;;;;;;5.11;100.00;97575.66;5072661;28;20071;-62
2023/12/31 08:31:54;;;;;;;0.80;0.60;;;;;;;5.23;100.00;97594.03;5074229;28;20068;-60
2023/12/31 08:34:20;;;;;;;0.50;0.50;;;;;;;5.28;100.00;97595.50;5078106;28;20051;-62
2023/12/31 08:36:46;;;;;;;0.95;0.60;;;;;;;5.15;100.00;97560.91;5051246;28;20523;-61
2023/12/31 08:39:12;;;;;;;1.73;0.50;;;;;;;5.17;100.00;97566.00;5070710;28;20055;-63
2023/12/31 08:41:38;;;;;;;1.23;0.50;;;;;;;5.26;100.00;97592.16;5071269;28;20067;-62
2023/12/31 08:44:05;;;;;;;2.85;0.60;;;;;;;5.30;100.00;97595.41;5059089;28;20075;-62
2023/12/31 08:46:30;;;;;;;1.08;0.40;;;;;;;5.39;100.00;97605.31;5071354;28;20044;-61
2023/12/31 08:48:57;;;;;;;4.80;1.58;;;;;;;5.43;100.00;97601.66;5077133;28;20070;-63
2023/12/31 08:51:23;;;;;;;1.77;0.57;;;;;;;5.35;100.00;97609.75;5083814;28;20101;-62
2023/12/31 08:53:50;;;;;;;1.13;0.50;;;;;;;5.31;100.00;97608.22;5067903;28;20122;-62
2023/12/31 08:56:16;;;;;;;2.88;0.80;;;;;;;5.33;100.00;97611.56;5082727;28;20475;-62
2023/12/31 08:58:43;;;;;;;0.77;0.50;;;;;;;5.26;100.00;97617.06;5077872;28;20586;-62
2023/12/31 09:01:12;;;;;;;1.00;0.50;;;;;;;5.11;100.00;97627.19;5081463;28;20084;-62
2023/12/31 09:03:38;;;;;;;;;;;;;;;5.12;100.00;97617.72;5065642;28;20133;-63
2023/12/31 09:06:04;;;;;;;6.47;0.82;;;;;;;4.99;100.00;97577.97;5075412;28;19954;-61
2023/12/31 09:08:30;;;;;;;0.93;0.70;;;;;;;5.21;100.00;97606.97;5080407;28;20068;-69
2023/12/31 09:10:56;;;;;;;0.80;0.40;;;;;;;5.03;100.00;97608.66;5081341;28;20428;-62
2023/12/31 09:13:22;;;;;;;2.90;0.60;;;;;;;5.01;100.00;97617.38;5086160;28;20535;-64
2023/12/31 09:15:48;;;;;;;5.88;1.38;;;;;;;5.15;100.00;97625.28;5098716;28;20055;-62
2023/12/31 09:18:16;;;;;;;3.70;0.68;;;;;;;5.01;100.00;97586.47;5086380;28;20094;-63
2023/12/31 09:20:42;;;;;;;2.30;0.52;;;;;;;5.10;100.00;97594.59;5083619;28;20044;-62
2023/12/31 09:23:08;;;;;;;0.55;0.45;;;;;;;5.35;100.00;97624.38;5086033;28;20670;-61
2023/12/31 09:25:35;;;;;;;1.08;0.60;;;;;;;5.36;100.00;97637.19;5085410;28;20758;-60
2023/12/31 09:28:01;;;;;;;3.60;0.80;;;;;;;5.43;100.00;97630.00;5079187;28;20043;-62
2023/12/31 09:30:27;;;;;;;2.90;0.90;;;;;;;5.47;100.00;97637.53;5083720;28;20071;-60
2023/12/31 09:32:52;;;;;;;1.85;0.30;;;;;;;5.53;100.00;97641.56;5086770;28;20148;-63
2023/12/31 09:35:18;;;;;;;2.30;0.55;;;;;;;5.42;100.00;97648.94;5086892;28;20058;-63
2023/12/31 09:37:44;;;;;;;0.40;0.30;;;;;;;5.28;100.00;97641.88;5080731;28;20074;-63
2023/12/31 09:40:11;;;;;;;0.22;0.20;;;;;;;5.24;100.00;97640.31;5082991;28;20113;-63
2023/12/31 09:42:46;;;;;;;0.73;0.43;;;;;;;5.17;100.00;97654.41;5066301;28;20463;-61
2023/12/31 09:45:13;;;;;;;0.80;0.52;;;;;;;5.21;100.00;97655.91;5081710;28;20040;-61
2023/12/31 09:47:40;;;;;;;0.68;0.52;;;;;;;5.30;100.00;97646.94;5070536;28;20384;-62
2023/12/31 09:50:07;;;;;;;3.05;0.77;;;;;;;5.18;100.00;97611.44;5063623;28;20213;-63
2023/12/31 09:52:34;;;;;;;1.50;0.68;;;;;;;5.40;100.00;97659.31;5082792;28;20036;-62
2023/12/31 09:55:00;;;;;;;2.53;0.50;;;;;;;5.36;99.65;97654.38;5085609;28;20533;-64
2023/12/31 09:57:29;;;;;;;1.88;0.50;;;;;;;5.02;97.77;97622.41;5087897;28;20061;-66
2023/12/31 09:59:55;;;;;;;1.47;0.90;;;;;;;5.30;97.30;97660.66;5054245;28;21539;-69
2023/12/31 10:02:26;;;;;;;4.45;0.70;;;;;;;5.09;96.90;97623.81;5081834;28;20060;-68
2023/12/31 10:04:51;;;;;;;7.32;1.00;;;;;;;5.28;96.10;97657.31;5084972;28;20045;-66
2023/12/31 10:07:17;;;;;;;2.17;0.90;;;;;;;5.32;96.18;97652.84;5085069;28;20085;-67
2023/12/31 10:09:43;;;;;;;2.95;0.90;;;;;;;5.22;94.04;97656.75;5082158;28;20070;-70
2023/12/31 10:12:10;;;;;;;4.30;0.70;;;;;;;5.15;93.20;97655.34;5085675;28;20052;-64
2023/12/31 10:14:36;;;;;;;1.23;0.60;;;;;;;5.00;92.80;97624.25;5068556;28;20051;-66
2023/12/31 10:17:07;;;;;;;1.25;0.80;;;;;;;5.28;92.49;97666.78;5086120;28;20416;-66
2023/12/31 10:19:33;;;;;;;1.10;0.73;;;;;;;5.10;89.94;97665.88;5080098;28;20421;-68
2023/12/31 10:22:00;;;;;;;0.65;0.52;;;;;;;5.03;88.93;97673.03;5080286;28;20046;-66
2023/12/31 10:24:29;;;;;;;3.33;0.60;;;;;;;4.90;89.52;97642.75;5085330;28;20669;-70
2023/12/31 10:26:56;;;;;;;1.85;0.65;;;;;;;4.96;88.05;97673.38;5083961;28;20048;-67
2023/12/31 10:29:22;;;;;;;1.00;0.63;;;;;;;4.98;87.74;97667.25;5080803;28;20043;-65
2023/12/31 10:31:48;;;;;;;1.38;0.63;;;;;;;5.01;87.83;97661.97;5066551;28;20404;-63
2023/12/31 10:34:15;;;;;;;1.52;0.60;;;;;;;5.17;87.87;97663.84;5081194;28;20090;-66
2023/12/31 10:36:43;;;;;;;1.50;0.60;;;;;;;5.19;87.83;97668.03;5083371;28;20085;-63
2023/12/31 10:39:10;;;;;;;0.43;0.35;;;;;;;4.86;87.10;97634.34;5066982;28;20036;-64
2023/12/31 10:41:37;;;;;;;0.80;0.60;;;;;;;5.13;87.06;97671.69;5062497;28;20051;-67
2023/12/31 10:44:08;;;;;;;0.90;0.55;;;;;;;4.96;86.55;97656.19;5071109;28;20062;-63
2023/12/31 10:46:36;;;;;;;1.40;0.75;;;;;;;4.98;86.32;97650.94;5080343;28;20146;-69
2023/12/31 10:49:03;;;;;;;2.08;0.98;;;;;;;5.21;86.07;97673.94;5086831;28;20044;-65
2023/12/31 10:51:31;;;;;;;2.30;0.93;;;;;;;5.25;85.99;97677.22;5075542;28;20123;-66
2023/12/31 10:54:05;;;;;;;0.73;0.60;;;;;;;5.25;85.37;97682.38;5079602;28;20181;-62
2023/12/31 10:56:32;;;;;;;1.58;0.85;;;;;;;5.27;84.96;97678.84;5080954;28;20039;-62
2023/12/31 10:58:58;;;;;;;1.85;1.15;;;;;;;5.09;84.52;97646.16;5068678;28;20048;-63
2023/12/31 11:01:25;;;;;;;1.25;0.75;;;;;;;5.13;84.22;97681.16;5075218;28;20089;-64
2023/12/31 11:03:56;;;;;;;4.65;1.65;;;;;;;5.18;83.88;97679.25;5070412;28;20478;-65
2023/12/31 11:06:22;;;;;;;1.85;0.90;;;;;;;5.17;83.71;97681.88;5079157;28;20059;-64
2023/12/31 11:08:49;;;;;;;1.15;0.68;;;;;;;5.21;83.25;97681.69;5082438;28;20032;-65
2023/12/31 11:11:15;;;;;;;3.88;1.85;;;;;;;5.21;83.15;97673.09;5087992;28;20051;-65
2023/12/31 11:13:49;;;;;;;3.22;1.08;;;;;;;5.23;82.75;97681.63;5071025;28;20127;-64
2023/12/31 11:16:43;;;;;;;1.30;0.93;;;;;;;5.27;83.23;97686.56;5055235;28;20508;-63
2023/12/31 11:19:17;;;;;;;2.00;0.85;;;;;;;5.04;83.02;97654.09;5072069;28;20044;-63
2023/12/31 11:22:08;;;;;;;2.38;0.98;;;;;;;5.19;82.74;97695.50;5089287;28;20071;-64
2023/12/31 11:24:35;;;;;;;2.28;1.30;;;;;;;5.07;82.64;97692.59;5082159;28;20781;-63
2023/12/31 11:27:15;;;;;;;1.42;0.98;;;;;;;4.95;81.99;97692.28;5073373;28;20416;-64
2023/12/31 11:29:43;;;;;;;2.38;1.30;;;;;;;4.88;82.49;97702.00;5075434;28;20040;-67
2023/12/31 11:32:09;;;;;;;2.75;1.13;;;;;;;4.88;82.03;97707.16;5088414;28;20043;-65